logo
App data

Big Fish Legend

One summer day the old friend Rat tells the kitten legend about Big Fish. The kitten has a desire to get the fish and starts its journey.
Store | Hub | SteamDB
Developer: Igry.ru Publisher: Igry.ru
Genre: Adventure, Casual, Indie
Languages: English, German, Russian
Tags: Indie (25), Casual (24), Adventure (22), Platformer (10), Free to Play (6)
Category: Single-player, Steam Achievements, Steam Trading Cards, Partial Controller Support, Steam Cloud, Includes level editor
Release date: Jul 20, 2015
Free
Old userscore: 81% Owners: 0 .. 20,000
Followers: 260
Peak concurrent players yesterday: 1
Playtime total: 03:43 (average) 03:56 (median)

Steam Spy is still in beta, so expect major bugs.

Owners data:

Access restricted.

This feature is only available to users with special access rights. Sorry.

If you want to proceed, you need to register or log in first and then back Steam Spy on Patreon. Look for Indie or Pro pledge.

Don't forget to use the same email as on Steam Spy!

If you've recently backed Steam Spy on Patreon, please note, that it might take around 15 minutes for your access rights to sync. In most cases you'll need to re-login on Steam Spy too.

Audience in 2 weeks:

Access restricted.

This feature is only available to users with special access rights. Sorry.

If you want to proceed, you need to register or log in first and then back Steam Spy on Patreon. Look for Indie or Pro pledge.

Don't forget to use the same email as on Steam Spy!

If you've recently backed Steam Spy on Patreon, please note, that it might take around 15 minutes for your access rights to sync. In most cases you'll need to re-login on Steam Spy too.

Peak daily concurrent players:

CCU data courtesy of SteamDB. Used with permission.

Hourly concurrent players:

Daily Twitch stats:

Hourly Twitch stats:

Followers over time

Access restricted.

This feature is only available to users with special access rights. Sorry.

If you want to proceed, you need to register or log in first and then back Steam Spy on Patreon. Look for Indie or Pro pledge.

Don't forget to use the same email as on Steam Spy!

If you've recently backed Steam Spy on Patreon, please note, that it might take around 15 minutes for your access rights to sync. In most cases you'll need to re-login on Steam Spy too.

Views for top 50 videos on YouTube for this game:

Games similar to this one:

# Game Release date
Price
Score rank
(Userscore / Metascore)
Owners
Players
Playtime (Median)
1 Club Life Apr 13, 2016 $12.99N/A (N/A)20,000 .. 50,0000%00:00 (00:00)
2 Elements II: Hearts of Light Apr 1, 2016 N/AN/A (N/A)100,000 .. 200,0000%00:00 (00:00)
3 Empire of the Gods May 13, 2008 $1.99N/A (N/A)50,000 .. 100,0000%00:00 (00:00)
4 Feed and Grow: Fish Jan 8, 2016 $14.99N/A (N/A)200,000 .. 500,0000%00:00 (00:00)
5 Planet Diver Nov 30, 2015 $3.99N/A (N/A)0 .. 20,0000%00:00 (00:00)
6 The Hurricane of the Varstray -Collateral hazard- Dec 21, 2015 $9.99N/A (N/A)20,000 .. 50,0000%00:00 (00:00)
7 Gigachess Dec 15, 2015 $3.99N/A (N/A)0 .. 20,0000%00:00 (00:00)
8 Days Under Custody Nov 23, 2015 $4.99N/A (N/A)20,000 .. 50,0000%00:00 (00:00)
9 Bullet Heaven 2 Dec 7, 2015 $11.99N/A (N/A)20,000 .. 50,0000%00:00 (00:00)
10 CrazyCars3D Mar 28, 2016 $2.99N/A (N/A)50,000 .. 100,0000%00:00 (00:00)
11 ChargeShot Sep 18, 2015 $9.99N/A (N/A)20,000 .. 50,0000%00:00 (00:00)
12 No Time To Live Sep 30, 2015 $1.99N/A (N/A)20,000 .. 50,0000%00:00 (00:00)
13 Moonbase 332 May 20, 2015 $4.99N/A (N/A)20,000 .. 50,0000%00:00 (00:00)
14 Rogue Wizards Sep 27, 2016 $14.99N/A (N/A/67%)20,000 .. 50,0000%00:00 (00:00)
15 Deserter Simulator Jul 30, 2015 $9.99N/A (N/A)0 .. 20,0000%00:00 (00:00)
16 Macabre Jul 6, 2015 N/AN/A (N/A)20,000 .. 50,0000%00:00 (00:00)
17 Aviary Attorney Dec 21, 2015 $14.99N/A (N/A/77%)50,000 .. 100,0000%00:00 (00:00)
18 Dead In Bermuda Aug 27, 2015 $14.99N/A (N/A)20,000 .. 50,0000%00:00 (00:00)
19 Turbo Pug DX Sep 26, 2016 $0.99N/A (N/A)500,000 .. 1,000,0000%00:00 (00:00)
20 SimAirport Feb 28, 2020 $24.99N/A (N/A)200,000 .. 500,0000%00:00 (00:00)
21 Catch a Lover Apr 6, 2017 $6.99N/A (N/A)50,000 .. 100,0000%00:00 (00:00)
22 Child Phobia: Nightcoming Fears Dec 20, 2016 $1.99N/A (N/A)20,000 .. 50,0000%00:00 (00:00)
23 Warbands: Bushido Sep 15, 2017 FreeN/A (N/A)100,000 .. 200,0000%00:00 (00:00)
24 Warhammer 40,000: Space Wolf Sep 21, 2017 $17.99N/A (N/A)100,000 .. 200,0000%00:00 (00:00)
25 Octave Oct 18, 2016 $2.99N/A (N/A)20,000 .. 50,0000%00:00 (00:00)
26 Starship Annihilator Sep 2, 2016 $0.99N/A (N/A)20,000 .. 50,0000%00:00 (00:00)
27 It Comes Around - A Kinetic Novel Sep 29, 2016 $2.99N/A (N/A)0 .. 20,0000%00:00 (00:00)
28 RETSNOM Jul 23, 2015 $4.99N/A (N/A)0 .. 20,0000%00:00 (00:00)
29 Final Quest Aug 17, 2016 $0.99N/A (N/A)200,000 .. 500,0000%00:00 (00:00)
30 Showdown Adventure Sep 21, 2016 N/AN/A (N/A)20,000 .. 50,0000%00:00 (00:00)
31 Pixel Cup Soccer 17 Aug 4, 2016 $9.99N/A (N/A)0 .. 20,0000%00:00 (00:00)
32 Star Drifter Jun 1, 2016 $0.99N/A (N/A)200,000 .. 500,0000%00:00 (00:00)
33 Shard Games Jul 29, 2016 $7.99N/A (N/A)20,000 .. 50,0000%00:00 (00:00)
34 Gal-X-E May 14, 2016 FreeN/A (N/A)20,000 .. 50,00018.18%05:05 (01:42)
35 Trouble Witches Origin - Episode1 Daughters of Amalgam - Nov 21, 2016 $9.99N/A (N/A)0 .. 20,0000%00:00 (00:00)
36 Iron Fisticle Sep 16, 2014 $0.89N/A (N/A)50,000 .. 100,0000%00:00 (00:00)
37 It came from space and ate our brains Mar 19, 2015 $14.99N/A (N/A)200,000 .. 500,0000%00:00 (00:00)
38 Glorkian Warrior: The Trials Of Glork Mar 24, 2015 $3.99N/A (N/A)20,000 .. 50,0000%00:00 (00:00)
39 Anoxemia Jan 16, 2015 $3.99N/A (N/A)100,000 .. 200,0000%00:00 (00:00)
40 Chronicles of a Dark Lord: Episode 1 Tides of Fate Complete Dec 19, 2014 N/AN/A (N/A)50,000 .. 100,0000%00:00 (00:00)
41 Sky Mercenaries Dec 16, 2014 $9.99N/A (N/A)20,000 .. 50,0000%00:00 (00:00)
42 Darkness Assault Feb 6, 2015 $0.99N/A (N/A)200,000 .. 500,0000%00:00 (00:00)
43 The Masterplan Jun 4, 2015 $19.99N/A (N/A/68%)50,000 .. 100,0000%00:00 (00:00)
44 Fancy Skulls Jun 16, 2014 $8.99N/A (N/A)20,000 .. 50,0000%00:00 (00:00)
45 Heckabomb Feb 27, 2015 $5.99N/A (N/A)200,000 .. 500,0000%00:00 (00:00)
46 Ballad of Solar May 22, 2014 $6.99N/A (N/A)0 .. 20,0000%00:00 (00:00)
47 Frederic: Resurrection of Music May 16, 2014 $2.99N/A (N/A)100,000 .. 200,0000%00:00 (00:00)
48 TownCraft Feb 25, 2015 $9.99N/A (N/A)0 .. 20,0000%00:00 (00:00)
49 Arson and Plunder: Unleashed Sep 25, 2015 $4.99N/A (N/A)20,000 .. 50,0000%00:00 (00:00)
50 FaeVerse Alchemy Apr 2, 2014 FreeN/A (N/A)100,000 .. 200,0000%00:00 (00:00)
51 Gunjitsu Jul 31, 2015 $3.99N/A (N/A)20,000 .. 50,0000%00:00 (00:00)
52 Procyon Feb 26, 2014 $3.99N/A (N/A)20,000 .. 50,0000%00:00 (00:00)
53 Mysterious Space May 15, 2015 $10N/A (N/A)0 .. 20,0000%00:00 (00:00)
54 Bard's Gold Aug 14, 2015 $7.99N/A (N/A/58%)0 .. 20,0000%00:00 (00:00)
55 Clandestinity of Elsie Jul 8, 2015 FreeN/A (N/A)20,000 .. 50,0000%00:00 (00:00)
56 Sumo Revise Jun 25, 2015 $4.99N/A (N/A)50,000 .. 100,0000%00:00 (00:00)
57 The Adventures of Mr. Bobley Jun 30, 2015 $0.99N/A (N/A)100,000 .. 200,0000%00:00 (00:00)
58 Football, Tactics & Glory Jun 1, 2018 $24.99N/A (N/A)200,000 .. 500,0000%00:00 (00:00)
59 Tin Star Jun 5, 2015 $4.99N/A (N/A)0 .. 20,0000%00:00 (00:00)
60 Shoot 1UP Sep 23, 2015 $3.99N/A (N/A)20,000 .. 50,0000%00:00 (00:00)
61 Cosmophony Jul 9, 2015 $4.99N/A (N/A)20,000 .. 50,0000%00:00 (00:00)
62 Escape Goat 2 Mar 24, 2014 $9.99N/A (N/A/76%)50,000 .. 100,0000%00:00 (00:00)
63 Pixel Star May 22, 2015 $2.99N/A (N/A)20,000 .. 50,0000%00:00 (00:00)
64 AdvertCity Jun 5, 2015 $19.99N/A (N/A)0 .. 20,0000%00:00 (00:00)
65 BRAWL Aug 13, 2015 $14.99N/A (N/A)0 .. 20,0000%00:00 (00:00)
66 Hare In The Hat Apr 1, 2015 $1.99N/A (N/A)50,000 .. 100,0000%00:00 (00:00)
67 Bunker - The Underground Game May 21, 2015 $3.99N/A (N/A/70%)0 .. 20,0000%00:00 (00:00)
68 Porcunipine May 21, 2015 $0.99N/A (N/A)20,000 .. 50,0000%00:00 (00:00)
69 BlastZone 2 Feb 19, 2015 $9.99N/A (N/A)20,000 .. 50,0000%00:00 (00:00)

Tags over time:

Access restricted.

This feature is only available to users with special access rights. Sorry.

If you want to proceed, you need to register or log in first and then back Steam Spy on Patreon. Look for Indie or Pro pledge.

Don't forget to use the same email as on Steam Spy!

If you've recently backed Steam Spy on Patreon, please note, that it might take around 15 minutes for your access rights to sync. In most cases you'll need to re-login on Steam Spy too.

Owners of this game also own:

Access restricted.

This feature is only available to users with special access rights. Sorry.

If you want to proceed, you need to register or log in first and then back Steam Spy on Patreon. Look for Indie or Pro pledge.

Don't forget to use the same email as on Steam Spy!

If you've recently backed Steam Spy on Patreon, please note, that it might take around 15 minutes for your access rights to sync. In most cases you'll need to re-login on Steam Spy too.

Playtime distribution:

Access restricted.

This feature is only available to users with special access rights. Sorry.

If you want to proceed, you need to register or log in first and then back Steam Spy on Patreon. Look for Indie or Pro pledge.

Don't forget to use the same email as on Steam Spy!

If you've recently backed Steam Spy on Patreon, please note, that it might take around 15 minutes for your access rights to sync. In most cases you'll need to re-login on Steam Spy too.

Playtime (2 weeks):

Access restricted.

This feature is only available to users with special access rights. Sorry.

If you want to proceed, you need to register or log in first and then back Steam Spy on Patreon. Look for Indie or Pro pledge.

Don't forget to use the same email as on Steam Spy!

If you've recently backed Steam Spy on Patreon, please note, that it might take around 15 minutes for your access rights to sync. In most cases you'll need to re-login on Steam Spy too.

User reviews:

Login required.

Please register or log in to see this information.